Time;durP1;ratioP1;P1;durP2;ratioP2;P2;SDS_P1;SDS_P2;PMS_P1;PMS_P2;Temp;Humidity;BMP_temperature;BMP_pressure;BME280_temperature;BME280_humidity;BME280_pressure;Samples;Min_cycle;Max_cycle;Signal;HPM_P1;HPM_P2
2022/03/07 00:08:02;;;;;;;6.53;3.20;;;-0.10;99.90;;;;;;6733174;88;20253;-73
2022/03/07 00:18:03;;;;;;;6.30;2.60;;;0.10;99.90;;;;;;6735199;88;20230;-73
2022/03/07 00:28:04;;;;;;;6.30;2.92;;;0.30;99.90;;;;;;6732608;88;20596;-73
2022/03/07 00:38:04;;;;;;;7.25;2.67;;;0.10;99.90;;;;;;6736307;88;20213;-73
2022/03/07 00:48:05;;;;;;;4.47;2.60;;;0.00;99.90;;;;;;6736977;88;21105;-73
2022/03/07 00:58:06;;;;;;;4.70;2.55;;;0.20;99.90;;;;;;6739409;88;21015;-73
2022/03/07 01:08:07;;;;;;;6.12;2.97;;;0.30;99.90;;;;;;6738129;88;20490;-74
2022/03/07 01:18:08;;;;;;;4.37;2.40;;;0.30;99.90;;;;;;6746777;88;20189;-73
2022/03/07 01:28:09;;;;;;;3.80;2.30;;;0.20;99.90;;;;;;6737173;88;20199;-73
2022/03/07 01:38:10;;;;;;;5.03;2.17;;;0.10;99.90;;;;;;6738554;88;20541;-72
2022/03/07 01:48:10;;;;;;;4.93;2.10;;;0.20;99.90;;;;;;6734450;88;20685;-73
2022/03/07 01:58:21;;;;;;;6.15;2.05;;;0.20;99.90;;;;;;6736127;88;20341;-73
2022/03/07 02:08:21;;;;;;;3.08;1.50;;;0.10;99.90;;;;;;6736337;88;20499;-73
2022/03/07 02:18:22;;;;;;;5.12;1.87;;;0.10;99.90;;;;;;6728336;88;20885;-74
2022/03/07 02:28:23;;;;;;;2.97;1.52;;;0.00;99.90;;;;;;6735752;88;20293;-73
2022/03/07 02:38:24;;;;;;;3.50;1.60;;;-0.10;99.90;;;;;;6727941;88;20218;-73
2022/03/07 02:48:25;;;;;;;3.65;1.58;;;-0.20;99.90;;;;;;6731729;88;20196;-73
2022/03/07 02:58:25;;;;;;;3.55;1.30;;;-0.40;99.90;;;;;;6730107;88;20184;-75
2022/03/07 03:08:26;;;;;;;2.50;1.40;;;-0.30;99.90;;;;;;6732167;88;20226;-76
2022/03/07 03:18:27;;;;;;;2.80;1.40;;;-0.40;99.90;;;;;;6736771;88;20199;-75
2022/03/07 03:28:27;;;;;;;2.83;1.23;;;-0.60;99.90;;;;;;6734323;88;20289;-73
2022/03/07 03:38:28;;;;;;;3.00;1.42;;;-0.70;99.90;;;;;;6728131;88;20369;-75
2022/03/07 03:48:28;;;;;;;3.00;1.58;;;-0.60;99.90;;;;;;6727228;88;20539;-74
2022/03/07 03:58:29;;;;;;;3.80;1.55;;;-1.00;99.90;;;;;;6729375;88;20201;-74
2022/03/07 04:08:30;;;;;;;5.00;1.62;;;-1.30;99.90;;;;;;6735000;88;20196;-74
2022/03/07 04:18:30;;;;;;;4.00;1.50;;;-1.30;99.90;;;;;;6740555;88;20296;-78
2022/03/07 04:28:32;;;;;;;3.95;1.33;;;-1.60;99.90;;;;;;6733063;88;20380;-74
2022/03/07 04:38:32;;;;;;;3.15;1.50;;;-1.70;99.90;;;;;;6736726;88;20189;-73
2022/03/07 04:48:33;;;;;;;4.62;1.70;;;-1.70;99.90;;;;;;6738126;88;20247;-74
2022/03/07 04:58:33;;;;;;;7.57;2.00;;;-1.80;99.90;;;;;;6735740;88;20181;-73
2022/03/07 05:08:37;;;;;;;2.75;1.58;;;-1.80;99.90;;;;;;6735226;88;20625;-73
2022/03/07 05:18:38;;;;;;;4.32;2.03;;;-1.90;99.90;;;;;;6741444;88;20307;-73
2022/03/07 05:28:39;;;;;;;3.83;2.22;;;-1.80;99.90;;;;;;6731355;88;20708;-74
2022/03/07 05:38:39;;;;;;;4.55;2.15;;;-1.70;99.90;;;;;;6734335;88;20590;-73
2022/03/07 05:48:40;;;;;;;5.47;2.28;;;-1.50;99.90;;;;;;6734659;88;20293;-73
2022/03/07 05:58:40;;;;;;;4.12;2.40;;;-1.30;99.90;;;;;;6743990;88;20701;-74
2022/03/07 06:08:41;;;;;;;3.87;2.28;;;-1.40;99.90;;;;;;6733142;88;20281;-74
2022/03/07 06:18:42;;;;;;;6.25;2.30;;;-1.50;99.90;;;;;;6736374;88;20180;-74
2022/03/07 06:28:42;;;;;;;5.65;2.45;;;-1.40;99.90;;;;;;6737474;88;20940;-74
2022/03/07 06:38:43;;;;;;;4.20;2.40;;;-1.40;99.90;;;;;;6739752;88;20502;-74
2022/03/07 06:48:43;;;;;;;6.15;2.35;;;-1.10;99.90;;;;;;6735312;88;20787;-75
2022/03/07 06:58:46;;;;;;;5.90;2.33;;;-0.90;99.90;;;;;;6735588;88;20199;-76
2022/03/07 07:08:46;;;;;;;5.37;2.45;;;-0.40;99.90;;;;;;6735187;88;20207;-73
2022/03/07 07:18:47;;;;;;;7.70;2.33;;;0.00;99.90;;;;;;6730803;88;20728;-75
2022/03/07 07:28:47;;;;;;;4.65;2.30;;;0.10;99.90;;;;;;6738029;88;20218;-74
2022/03/07 07:38:48;;;;;;;5.40;2.67;;;0.60;99.90;;;;;;6727288;88;20218;-74
2022/03/07 07:48:48;;;;;;;6.40;2.60;;;1.00;99.90;;;;;;6730927;88;20497;-73
2022/03/07 07:58:49;;;;;;;8.15;2.85;;;1.40;99.90;;;;;;6737724;88;20199;-73
2022/03/07 08:08:50;;;;;;;6.03;2.45;;;2.00;99.90;;;;;;6734688;88;20232;-73
2022/03/07 08:18:50;;;;;;;6.35;2.33;;;2.40;99.00;;;;;;6728786;88;20619;-74
2022/03/07 08:28:51;;;;;;;5.68;2.30;;;4.30;95.70;;;;;;6734261;88;20197;-74
2022/03/07 08:38:51;;;;;;;4.28;2.62;;;6.00;90.20;;;;;;6736347;88;20226;-74
2022/03/07 08:48:53;;;;;;;3.87;2.50;;;6.20;89.60;;;;;;6733997;88;20192;-74
2022/03/07 08:58:53;;;;;;;4.18;2.50;;;6.30;83.40;;;;;;6732114;88;20589;-73
2022/03/07 09:08:54;;;;;;;4.30;2.67;;;6.40;85.90;;;;;;6736147;88;20690;-74
2022/03/07 09:18:55;;;;;;;6.18;2.60;;;6.90;82.40;;;;;;6735208;88;20550;-76
2022/03/07 09:28:55;;;;;;;5.40;2.78;;;7.10;80.90;;;;;;6735827;88;20665;-76
2022/03/07 09:38:56;;;;;;;4.43;2.60;;;6.80;81.00;;;;;;6739965;88;20189;-76
2022/03/07 09:48:56;;;;;;;3.83;2.30;;;7.60;80.80;;;;;;6737790;88;20322;-75
2022/03/07 09:58:57;;;;;;;7.70;2.28;;;6.20;79.10;;;;;;6739038;88;20186;-75
2022/03/07 10:08:59;;;;;;;3.70;2.15;;;6.00;80.80;;;;;;6736950;88;20543;-75
2022/03/07 10:18:59;;;;;;;7.18;2.95;;;6.60;78.60;;;;;;6734405;88;20240;-75
2022/03/07 10:29:00;;;;;;;4.47;2.20;;;7.40;77.60;;;;;;6740968;88;20679;-72
2022/03/07 10:39:04;;;;;;;4.37;1.98;;;6.90;78.60;;;;;;6731839;88;20802;-74
2022/03/07 10:49:12;;;;;;;5.87;2.22;;;6.90;78.60;;;;;;6726728;88;20193;-72
2022/03/07 10:59:12;;;;;;;3.50;2.03;;;8.60;75.10;;;;;;6735057;88;20318;-75
2022/03/07 11:09:13;;;;;;;4.18;2.20;;;8.70;73.60;;;;;;6738631;76;20244;-80
2022/03/07 11:19:18;;;;;;;4.97;2.08;;;8.60;74.00;;;;;;6744115;88;20250;-77
2022/03/07 11:29:30;;;;;;;3.43;2.20;;;9.50;73.20;;;;;;6729162;88;20233;-80
2022/03/07 11:39:33;;;;;;;5.25;2.10;;;10.50;72.50;;;;;;6743085;88;20702;-77
2022/03/07 11:49:34;;;;;;;4.35;1.90;;;8.50;71.30;;;;;;6757189;88;20243;-79
2022/03/07 11:59:34;;;;;;;6.05;2.50;;;9.20;71.40;;;;;;6752326;88;20219;-78
2022/03/07 12:09:37;;;;;;;5.47;2.40;;;9.50;72.00;;;;;;6750510;87;20439;-78
2022/03/07 12:19:39;;;;;;;4.43;2.20;;;10.90;68.70;;;;;;6715309;88;20678;-78
2022/03/07 12:29:43;;;;;;;3.97;2.50;;;10.60;68.30;;;;;;6718411;88;20237;-78
2022/03/07 12:39:53;;;;;;;7.57;2.42;;;10.10;67.90;;;;;;6718350;88;20257;-78
2022/03/07 12:49:53;;;;;;;5.37;2.42;;;11.20;66.40;;;;;;6718859;88;20307;-79
2022/03/07 13:00:07;;;;;;;3.70;2.58;;;12.00;62.80;;;;;;6717580;88;20370;-78
2022/03/07 13:10:10;;;;;;;5.90;2.80;;;12.50;60.60;;;;;;6716602;88;20205;-78
2022/03/07 13:20:11;;;;;;;4.32;2.70;;;12.90;60.10;;;;;;6716369;88;20190;-79
2022/03/07 13:30:12;;;;;;;4.65;2.67;;;13.70;58.10;;;;;;6720696;88;20364;-79
2022/03/07 13:40:16;;;;;;;3.40;2.40;;;15.90;55.90;;;;;;6735937;88;20199;-80
2022/03/07 13:50:24;;;;;;;6.20;2.20;;;13.90;56.80;;;;;;6735190;88;20177;-78
2022/03/07 14:00:27;;;;;;;3.70;2.42;;;12.60;57.00;;;;;;6742801;88;20304;-78
2022/03/07 14:10:27;;;;;;;4.62;2.45;;;11.90;57.20;;;;;;6734524;88;20192;-78
2022/03/07 14:20:29;;;;;;;4.55;2.33;;;11.70;56.40;;;;;;6737889;88;20202;-77
2022/03/07 14:30:30;;;;;;;3.85;2.35;;;11.50;57.90;;;;;;6735192;88;20250;-79
2022/03/07 14:40:31;;;;;;;3.92;2.17;;;12.60;56.90;;;;;;6730824;88;20180;-78
2022/03/07 14:50:32;;;;;;;9.10;2.20;;;10.90;58.70;;;;;;6731659;88;20206;-79
2022/03/07 15:00:33;;;;;;;6.00;2.60;;;10.80;58.50;;;;;;6730869;88;20287;-77
2022/03/07 15:10:33;;;;;;;4.45;2.40;;;10.80;58.70;;;;;;6736298;88;20507;-79
2022/03/07 15:20:34;;;;;;;4.70;2.65;;;10.50;59.70;;;;;;6727912;88;20197;-79
2022/03/07 15:30:35;;;;;;;5.03;2.50;;;10.30;59.90;;;;;;6737051;88;20231;-79
2022/03/07 15:40:37;;;;;;;3.50;2.40;;;9.80;61.60;;;;;;6744638;88;20193;-79
2022/03/07 15:50:38;;;;;;;4.93;2.62;;;10.40;60.70;;;;;;6742904;88;20289;-79
2022/03/07 16:00:38;;;;;;;3.42;2.42;;;9.30;60.50;;;;;;6751344;88;20188;-78
2022/03/07 16:10:42;;;;;;;4.53;2.50;;;9.20;61.20;;;;;;6741362;88;20197;-78
2022/03/07 16:20:44;;;;;;;5.72;2.50;;;9.00;61.90;;;;;;6762198;88;20280;-80
2022/03/07 16:30:48;;;;;;;5.62;2.78;;;8.70;62.10;;;;;;6749994;88;20205;-80
2022/03/07 16:40:50;;;;;;;4.50;2.95;;;8.40;63.50;;;;;;6741208;88;20186;-78
2022/03/07 16:50:51;;;;;;;5.22;2.75;;;8.30;63.50;;;;;;6739505;88;20202;-79
2022/03/07 17:00:51;;;;;;;6.15;3.40;;;8.00;64.20;;;;;;6732282;88;20265;-78
2022/03/07 17:10:52;;;;;;;7.17;3.30;;;7.50;64.70;;;;;;6735130;88;20685;-78
2022/03/07 17:20:53;;;;;;;5.35;3.80;;;7.30;65.80;;;;;;6749166;76;20537;-76
2022/03/07 17:30:53;;;;;;;5.53;3.60;;;7.00;66.50;;;;;;6760110;87;20232;-76
2022/03/07 17:40:54;;;;;;;5.62;3.95;;;6.70;67.60;;;;;;6759673;87;20222;-75
2022/03/07 17:50:54;;;;;;;8.48;3.95;;;6.40;68.10;;;;;;6754913;87;20200;-74
2022/03/07 18:00:56;;;;;;;7.32;4.55;;;6.10;68.90;;;;;;6753942;87;20203;-74
2022/03/07 18:10:56;;;;;;;6.43;3.80;;;5.90;69.60;;;;;;6754777;87;20223;-76
2022/03/07 18:20:57;;;;;;;7.10;4.07;;;5.60;69.80;;;;;;6750348;87;20225;-75
2022/03/07 18:30:58;;;;;;;6.12;3.85;;;5.40;70.60;;;;;;6754237;87;20181;-75
2022/03/07 18:40:58;;;;;;;6.55;4.22;;;5.30;71.30;;;;;;6753696;87;20213;-74
2022/03/07 18:50:59;;;;;;;6.68;4.00;;;5.10;72.30;;;;;;6753466;87;20313;-75
2022/03/07 19:01:00;;;;;;;6.68;4.25;;;5.00;72.60;;;;;;6752085;87;20720;-75
2022/03/07 19:11:00;;;;;;;9.88;4.55;;;4.80;73.70;;;;;;6764328;87;20698;-75
2022/03/07 19:21:01;;;;;;;7.65;4.75;;;4.60;74.80;;;;;;6759964;87;20705;-75
2022/03/07 19:31:02;;;;;;;7.32;4.10;;;4.40;75.30;;;;;;6754098;87;20212;-75
2022/03/07 19:41:03;;;;;;;9.05;4.72;;;4.30;75.90;;;;;;6755383;87;20196;-74
2022/03/07 19:51:04;;;;;;;12.45;5.43;;;4.10;77.20;;;;;;6751867;87;20196;-74
2022/03/07 20:01:07;;;;;;;10.55;4.85;;;3.90;77.60;;;;;;6750932;87;20772;-73
2022/03/07 20:11:09;;;;;;;7.10;4.60;;;3.70;78.30;;;;;;6752276;87;20238;-73
2022/03/07 20:21:09;;;;;;;11.12;5.32;;;3.70;78.70;;;;;;6752454;87;20467;-75
2022/03/07 20:31:10;;;;;;;8.55;5.05;;;3.50;79.70;;;;;;6755985;87;20712;-75
2022/03/07 20:41:11;;;;;;;10.25;5.37;;;3.30;80.70;;;;;;6754453;87;20200;-75
2022/03/07 20:51:11;;;;;;;10.20;5.10;;;3.10;81.80;;;;;;6752991;87;20215;-73
2022/03/07 21:01:12;;;;;;;12.57;5.75;;;3.00;82.10;;;;;;6755992;87;20208;-74
2022/03/07 21:11:13;;;;;;;7.50;4.60;;;3.00;82.20;;;;;;6751416;88;20206;-74
2022/03/07 21:21:14;;;;;;;10.38;4.35;;;3.20;81.50;;;;;;6756633;88;20972;-74
2022/03/07 21:31:15;;;;;;;8.05;4.35;;;3.00;81.70;;;;;;6756465;87;20566;-74
2022/03/07 21:41:16;;;;;;;9.07;5.18;;;2.90;82.50;;;;;;6751401;87;20214;-73
2022/03/07 21:51:17;;;;;;;12.87;5.83;;;2.50;84.10;;;;;;6750966;87;20339;-74
2022/03/07 22:01:18;;;;;;;10.55;6.25;;;2.30;85.60;;;;;;6750319;87;20531;-74
2022/03/07 22:11:18;;;;;;;12.18;6.50;;;2.20;87.00;;;;;;6750018;87;20208;-73
2022/03/07 22:21:19;;;;;;;11.40;5.70;;;2.00;89.10;;;;;;6755995;87;20243;-74
2022/03/07 22:31:20;;;;;;;8.60;4.75;;;1.70;90.50;;;;;;6747321;87;20538;-74
2022/03/07 22:41:20;;;;;;;10.52;5.45;;;1.90;90.40;;;;;;6746913;87;20193;-73
2022/03/07 22:51:21;;;;;;;10.05;4.80;;;1.70;90.80;;;;;;6748614;87;20196;-74
2022/03/07 23:01:21;;;;;;;10.68;5.15;;;1.60;91.60;;;;;;6751454;87;20311;-73
2022/03/07 23:11:22;;;;;;;9.25;4.57;;;1.70;91.80;;;;;;6748206;87;20234;-73
2022/03/07 23:21:23;;;;;;;8.95;3.92;;;1.40;92.90;;;;;;6746513;87;20249;-74
2022/03/07 23:31:24;;;;;;;7.05;4.07;;;1.60;91.60;;;;;;6755192;87;20308;-73
2022/03/07 23:41:25;;;;;;;9.48;4.68;;;1.60;91.90;;;;;;6754395;87;20192;-72
2022/03/07 23:51:25;;;;;;;10.63;4.25;;;1.70;91.50;;;;;;6747834;87;20219;-74
